createdAt,value
2023-07-03T00:02:16.862Z,7.80
2023-07-03T00:04:47.142Z,7.65
2023-07-03T00:07:15.451Z,8.38
2023-07-03T00:09:42.970Z,7.40
2023-07-03T00:12:11.875Z,7.88
2023-07-03T00:14:39.821Z,8.15
2023-07-03T00:17:08.752Z,7.90
2023-07-03T00:19:35.870Z,8.02
2023-07-03T00:22:03.880Z,7.90
2023-07-03T00:24:32.650Z,8.38
2023-07-03T00:26:59.906Z,8.00
2023-07-03T00:29:32.665Z,8.30
2023-07-03T00:32:01.102Z,8.60
2023-07-03T00:34:28.671Z,8.05
2023-07-03T00:36:55.884Z,8.52
2023-07-03T00:39:22.658Z,8.13
2023-07-03T00:41:50.099Z,8.35
2023-07-03T00:44:19.338Z,7.43
2023-07-03T00:46:49.659Z,8.43
2023-07-03T00:49:17.441Z,8.88
2023-07-03T00:51:47.422Z,8.52
2023-07-03T00:54:14.176Z,8.88
2023-07-03T00:56:41.447Z,8.88
2023-07-03T00:59:08.475Z,8.55
2023-07-03T01:01:44.922Z,8.82
2023-07-03T01:04:18.694Z,8.50
2023-07-03T01:06:52.379Z,8.57
2023-07-03T01:09:22.953Z,8.52
2023-07-03T01:11:50.600Z,9.15
2023-07-03T01:14:19.933Z,8.25
2023-07-03T01:16:51.051Z,8.20
2023-07-03T01:19:32.325Z,7.95
2023-07-03T01:22:29.531Z,9.02
2023-07-03T01:25:10.086Z,9.07
2023-07-03T01:27:40.508Z,9.05
2023-07-03T01:30:10.010Z,8.90
2023-07-03T01:32:37.965Z,8.85
2023-07-03T01:35:06.671Z,9.00
2023-07-03T01:37:35.468Z,8.90
2023-07-03T01:40:02.950Z,9.23
2023-07-03T01:42:32.004Z,9.25
2023-07-03T01:44:59.033Z,9.15
2023-07-03T01:47:25.840Z,9.00
2023-07-03T01:49:52.590Z,9.10
2023-07-03T01:52:22.593Z,8.50
2023-07-03T01:55:24.034Z,8.73
2023-07-03T01:58:04.597Z,9.07
2023-07-03T02:00:43.400Z,9.27
2023-07-03T02:03:36.016Z,8.85
2023-07-03T02:06:16.774Z,9.38
2023-07-03T02:08:43.865Z,9.30
2023-07-03T02:11:20.300Z,9.13
2023-07-03T02:13:50.073Z,9.52
2023-07-03T02:16:18.056Z,9.30
2023-07-03T02:18:46.996Z,9.27
2023-07-03T02:21:15.017Z,9.35
2023-07-03T02:23:42.981Z,9.45
2023-07-03T02:26:11.096Z,10.20
2023-07-03T02:28:38.069Z,9.90
2023-07-03T02:31:05.584Z,9.93
2023-07-03T02:33:32.503Z,9.90
2023-07-03T02:36:03.605Z,10.50
2023-07-03T02:38:30.560Z,9.18
2023-07-03T02:40:59.713Z,9.52
2023-07-03T02:43:26.529Z,9.93
2023-07-03T02:45:55.244Z,9.90
2023-07-03T02:48:22.998Z,9.57
2023-07-03T02:50:53.881Z,10.20
2023-07-03T02:53:20.921Z,9.70
2023-07-03T02:55:52.016Z,9.80
2023-07-03T02:58:19.881Z,10.20
2023-07-03T03:00:48.091Z,10.20
2023-07-03T03:03:15.095Z,10.45
2023-07-03T03:05:42.189Z,10.15
2023-07-03T03:08:09.339Z,9.32
2023-07-03T03:10:36.155Z,9.25
2023-07-03T03:13:02.901Z,9.52
2023-07-03T03:15:30.671Z,9.93
2023-07-03T03:17:57.528Z,10.27
2023-07-03T03:20:24.500Z,9.68
2023-07-03T03:22:51.437Z,10.02
2023-07-03T03:25:18.193Z,9.68
2023-07-03T03:27:45.085Z,10.82
2023-07-03T03:30:12.237Z,9.70
2023-07-03T03:32:41.751Z,10.45
2023-07-03T03:35:09.195Z,10.40
2023-07-03T03:37:36.974Z,10.40
2023-07-03T03:40:08.870Z,10.02
2023-07-03T03:42:36.910Z,10.32
2023-07-03T03:45:04.856Z,10.57
2023-07-03T03:47:31.925Z,10.45
2023-07-03T03:49:59.499Z,9.85
2023-07-03T03:52:27.706Z,10.32
2023-07-03T03:54:55.534Z,10.05
2023-07-03T03:57:22.294Z,9.68
2023-07-03T03:59:49.173Z,10.38
2023-07-03T04:02:17.161Z,10.68
2023-07-03T04:04:43.921Z,10.00
2023-07-03T04:07:10.642Z,9.82
2023-07-03T04:09:37.438Z,9.98
2023-07-03T04:12:04.495Z,10.57
2023-07-03T04:14:31.183Z,9.85
2023-07-03T04:16:59.243Z,10.20
2023-07-03T04:19:29.046Z,10.82
2023-07-03T04:21:55.744Z,10.45
2023-07-03T04:24:22.479Z,10.18
2023-07-03T04:26:49.186Z,10.57
2023-07-03T04:29:15.887Z,10.35
2023-07-03T04:31:43.018Z,11.35
2023-07-03T04:34:09.766Z,10.57
2023-07-03T04:36:36.556Z,10.25
2023-07-03T04:39:03.796Z,10.32
2023-07-03T04:41:30.626Z,10.40
2023-07-03T04:43:59.404Z,10.50
2023-07-03T04:46:27.531Z,10.30
2023-07-03T04:49:01.037Z,10.55
2023-07-03T04:51:32.646Z,10.55
2023-07-03T04:54:00.813Z,10.15
2023-07-03T04:56:29.373Z,10.90
2023-07-03T04:58:56.097Z,10.90
2023-07-03T05:01:23.422Z,10.60
2023-07-03T05:03:50.338Z,10.43
2023-07-03T05:06:17.366Z,10.38
2023-07-03T05:08:44.139Z,10.57
2023-07-03T05:11:10.833Z,10.82
2023-07-03T05:13:37.508Z,11.30
2023-07-03T05:16:04.531Z,10.13
2023-07-03T05:18:31.281Z,10.05
2023-07-03T05:20:58.101Z,10.70
2023-07-03T05:23:24.842Z,10.20
2023-07-03T05:25:51.868Z,11.27
2023-07-03T05:28:18.728Z,10.45
2023-07-03T05:30:46.319Z,11.68
2023-07-03T05:33:13.762Z,9.98
2023-07-03T05:35:49.806Z,9.88
2023-07-03T05:38:18.357Z,10.45
2023-07-03T05:40:45.337Z,10.48
2023-07-03T05:43:14.597Z,10.15
2023-07-03T05:45:42.411Z,10.20
2023-07-03T05:48:09.357Z,10.38
2023-07-03T05:50:36.059Z,9.52
2023-07-03T05:53:04.116Z,10.52
2023-07-03T05:55:31.101Z,9.63
2023-07-03T05:57:57.828Z,10.00
2023-07-03T06:00:25.596Z,10.18
2023-07-03T06:02:54.116Z,10.18
2023-07-03T06:05:21.429Z,10.15
2023-07-03T06:07:48.403Z,10.50
2023-07-03T06:10:15.262Z,10.13
2023-07-03T06:12:43.191Z,9.95
2023-07-03T06:15:11.374Z,9.95
2023-07-03T06:17:39.913Z,9.82
2023-07-03T06:20:08.104Z,9.70
2023-07-03T06:22:34.977Z,9.82
2023-07-03T06:25:01.783Z,9.52
2023-07-03T06:27:28.492Z,10.07
2023-07-03T06:29:55.203Z,9.70
2023-07-03T06:32:21.904Z,9.52
2023-07-03T06:34:48.582Z,10.20
2023-07-03T06:37:15.386Z,10.63
2023-07-03T06:39:42.276Z,9.50
2023-07-03T06:42:11.216Z,9.73
2023-07-03T06:44:43.262Z,9.70
2023-07-03T06:47:10.387Z,9.23
2023-07-03T06:49:37.828Z,8.80
2023-07-03T06:52:05.176Z,9.50
2023-07-03T06:54:32.512Z,9.93
2023-07-03T06:57:00.395Z,9.43
2023-07-03T06:59:27.215Z,9.48
2023-07-03T07:01:54.009Z,8.95
2023-07-03T07:04:21.010Z,9.10
2023-07-03T07:06:49.545Z,9.60
2023-07-03T07:09:17.116Z,8.75
2023-07-03T07:11:43.856Z,8.52
2023-07-03T07:14:10.606Z,9.20
2023-07-03T07:16:38.149Z,8.70
2023-07-03T07:19:07.762Z,8.77
2023-07-03T07:21:36.741Z,8.68
2023-07-03T07:24:14.406Z,9.57
2023-07-03T07:26:41.773Z,8.38
2023-07-03T07:29:08.627Z,9.13
2023-07-03T07:31:41.369Z,8.90
2023-07-03T07:34:10.244Z,8.75
2023-07-03T07:36:39.680Z,8.88
2023-07-03T07:39:07.199Z,8.52
2023-07-03T07:41:34.012Z,9.50
2023-07-03T07:44:00.864Z,10.15
2023-07-03T07:46:30.552Z,9.23
2023-07-03T07:48:58.712Z,9.38
2023-07-03T07:51:25.989Z,9.32
2023-07-03T07:53:54.093Z,8.93
2023-07-03T07:56:22.706Z,9.23
2023-07-03T07:58:49.718Z,9.15
2023-07-03T08:01:17.255Z,9.23
2023-07-03T08:03:45.069Z,8.88
2023-07-03T08:06:13.645Z,9.63
2023-07-03T08:08:40.584Z,9.38
2023-07-03T08:11:09.806Z,9.18
2023-07-03T08:13:37.572Z,9.43
2023-07-03T08:16:04.663Z,8.57
2023-07-03T08:18:31.433Z,9.10
2023-07-03T08:20:58.270Z,9.30
2023-07-03T08:23:25.081Z,8.65
2023-07-03T08:25:54.454Z,8.63
2023-07-03T08:28:22.487Z,9.02
2023-07-03T08:30:49.446Z,8.40
2023-07-03T08:33:16.642Z,8.23
2023-07-03T08:38:13.336Z,8.85
2023-07-03T08:40:40.216Z,7.78
2023-07-03T08:43:11.960Z,8.45
2023-07-03T08:45:42.504Z,7.78
2023-07-03T08:48:14.608Z,8.15
2023-07-03T08:50:46.468Z,7.88
2023-07-03T08:53:18.395Z,8.00
2023-07-03T08:56:01.773Z,7.68
2023-07-03T08:58:28.500Z,7.88
2023-07-03T09:01:23.122Z,8.07
2023-07-03T09:04:13.259Z,7.95
2023-07-03T09:06:44.414Z,6.53
2023-07-03T09:09:34.157Z,7.55
2023-07-03T09:12:14.371Z,7.70
2023-07-03T09:15:07.908Z,7.22
2023-07-03T09:17:36.623Z,7.38
2023-07-03T09:20:07.082Z,6.70
2023-07-03T09:22:53.211Z,7.28
2023-07-03T09:25:25.179Z,6.47
2023-07-03T09:27:55.789Z,6.55
2023-07-03T09:30:22.697Z,6.20
2023-07-03T09:32:49.515Z,6.22
2023-07-03T09:35:22.166Z,6.25
2023-07-03T09:37:51.841Z,5.38
2023-07-03T09:40:24.591Z,5.70
2023-07-03T09:42:51.619Z,5.78
2023-07-03T09:45:24.173Z,5.40
2023-07-03T09:47:56.933Z,5.60
2023-07-03T09:50:38.767Z,5.20
2023-07-03T09:53:08.851Z,5.22
2023-07-03T09:55:37.179Z,5.28
2023-07-03T09:58:12.934Z,4.82
2023-07-03T10:00:48.381Z,5.13
2023-07-03T10:03:30.650Z,4.65
2023-07-03T10:08:48.021Z,5.10
2023-07-03T10:11:26.808Z,4.80
2023-07-03T10:13:54.119Z,4.70
2023-07-03T10:16:24.106Z,5.10
2023-07-03T10:18:54.096Z,4.95
2023-07-03T10:21:22.366Z,5.57
2023-07-03T10:23:50.811Z,5.10
2023-07-03T10:26:31.163Z,5.22
2023-07-03T10:29:12.906Z,5.10
2023-07-03T10:31:57.304Z,5.13
2023-07-03T10:34:47.131Z,5.57
2023-07-03T10:37:16.062Z,5.22
2023-07-03T10:39:51.924Z,5.40
2023-07-03T10:42:33.227Z,5.50
2023-07-03T10:45:15.249Z,5.13
2023-07-03T10:47:59.524Z,5.45
2023-07-03T10:50:33.292Z,5.50
2023-07-03T10:53:37.454Z,5.18
2023-07-03T10:56:25.374Z,5.50
2023-07-03T10:59:06.091Z,5.22
2023-07-03T11:01:52.757Z,5.35
2023-07-03T11:04:37.173Z,5.18
2023-07-03T11:07:14.949Z,5.05
2023-07-03T11:09:45.283Z,5.13
2023-07-03T11:12:38.196Z,5.30
2023-07-03T11:15:18.998Z,5.07
2023-07-03T11:23:37.154Z,5.00
2023-07-03T11:28:51.295Z,5.15
2023-07-03T11:31:19.005Z,5.38
2023-07-03T11:36:50.570Z,5.53
2023-07-03T11:44:43.698Z,5.82
2023-07-03T11:47:19.539Z,5.38
2023-07-03T11:49:53.349Z,5.70
2023-07-03T11:52:32.577Z,5.32
2023-07-03T11:55:12.321Z,5.75
2023-07-03T11:57:41.720Z,5.53
2023-07-03T12:00:23.774Z,5.28
2023-07-03T12:03:04.568Z,5.28
2023-07-03T12:05:46.500Z,5.85
2023-07-03T12:08:19.275Z,5.50
2023-07-03T12:10:56.148Z,4.97
2023-07-03T12:13:42.488Z,4.90
2023-07-03T12:16:43.639Z,5.82
2023-07-03T12:19:13.301Z,5.40
2023-07-03T12:21:46.587Z,5.50
2023-07-03T12:24:22.193Z,5.63
2023-07-03T12:27:04.375Z,5.50
2023-07-03T12:29:34.478Z,5.68
2023-07-03T12:32:06.960Z,5.50
2023-07-03T12:34:39.973Z,5.47
2023-07-03T12:37:16.507Z,5.80
2023-07-03T12:39:45.766Z,5.35
2023-07-03T12:42:18.997Z,5.25
2023-07-03T12:44:45.848Z,5.35
2023-07-03T12:47:15.809Z,5.80
2023-07-03T12:50:01.876Z,5.95
2023-07-03T12:52:33.679Z,5.65
2023-07-03T12:57:38.381Z,5.70
2023-07-03T13:00:13.411Z,5.50
2023-07-03T13:02:40.260Z,5.55
2023-07-03T13:05:10.860Z,5.43
2023-07-03T13:07:37.911Z,5.40
2023-07-03T13:10:14.999Z,5.45
2023-07-03T13:12:42.364Z,5.45
2023-07-03T13:15:11.397Z,5.60
2023-07-03T13:17:44.278Z,5.57
2023-07-03T13:20:29.259Z,5.32
2023-07-03T13:22:59.869Z,5.22
2023-07-03T13:25:28.869Z,5.47
2023-07-03T13:27:57.399Z,4.90
2023-07-03T13:30:29.752Z,5.70
2023-07-03T13:32:59.989Z,4.85
2023-07-03T13:35:30.208Z,4.85
2023-07-03T13:38:16.019Z,5.30
2023-07-03T13:40:43.246Z,5.28
2023-07-03T13:43:10.008Z,5.07
2023-07-03T13:45:37.248Z,5.20
2023-07-03T13:48:04.211Z,7.63
2023-07-03T13:50:30.973Z,7.15
2023-07-03T13:52:57.711Z,6.05
2023-07-03T13:55:24.583Z,6.00
2023-07-03T13:57:52.613Z,6.30
2023-07-03T14:00:19.636Z,6.70
2023-07-03T14:02:49.126Z,7.18
2023-07-03T14:05:17.089Z,6.65
2023-07-03T14:07:43.827Z,6.40
2023-07-03T14:10:10.815Z,5.88
2023-07-03T14:12:37.705Z,6.47
2023-07-03T14:15:26.828Z,7.50
2023-07-03T14:17:54.120Z,6.00
2023-07-03T14:20:21.514Z,5.63
2023-07-03T14:22:49.457Z,4.97
2023-07-03T14:25:17.529Z,5.07
2023-07-03T14:27:44.430Z,5.45
2023-07-03T14:30:12.897Z,5.47
2023-07-03T14:32:51.523Z,5.03
2023-07-03T14:35:22.250Z,5.30
2023-07-03T14:37:49.070Z,4.88
2023-07-03T14:40:17.186Z,5.40
2023-07-03T14:42:45.488Z,4.88
2023-07-03T14:45:13.119Z,5.00
2023-07-03T14:47:43.109Z,4.35
2023-07-03T14:50:11.442Z,4.80
2023-07-03T14:52:39.861Z,5.00
2023-07-03T14:55:07.480Z,4.75
2023-07-03T14:57:34.334Z,5.10
2023-07-03T15:00:01.132Z,5.35
2023-07-03T15:02:27.970Z,4.97
2023-07-03T15:04:54.788Z,4.72
2023-07-03T15:07:21.570Z,4.60
2023-07-03T15:09:48.260Z,4.43
2023-07-03T15:12:14.956Z,4.47
2023-07-03T15:14:41.743Z,5.18
2023-07-03T15:17:13.101Z,5.40
2023-07-03T15:19:40.824Z,4.85
2023-07-03T15:22:08.950Z,4.75
2023-07-03T15:24:36.148Z,4.50
2023-07-03T15:27:03.302Z,4.80
2023-07-03T15:29:30.429Z,4.88
2023-07-03T15:31:57.927Z,4.78
2023-07-03T15:34:24.859Z,5.35
2023-07-03T15:36:53.032Z,5.28
2023-07-03T15:39:24.315Z,4.85
2023-07-03T15:41:52.924Z,5.30
2023-07-03T15:44:20.752Z,5.10
2023-07-03T15:46:47.624Z,5.13
2023-07-03T15:49:14.674Z,5.10
2023-07-03T15:51:41.897Z,5.32
2023-07-03T15:54:09.097Z,5.50
2023-07-03T15:56:36.636Z,6.60
2023-07-03T15:59:05.238Z,5.68
2023-07-03T16:01:32.942Z,5.65
2023-07-03T16:04:02.094Z,5.30
2023-07-03T16:06:34.396Z,4.95
2023-07-03T16:09:02.378Z,5.35
2023-07-03T16:11:29.321Z,5.22
2023-07-03T16:13:59.101Z,5.30
2023-07-03T16:16:27.134Z,4.97
2023-07-03T16:18:56.781Z,4.70
2023-07-03T16:21:25.743Z,5.28
2023-07-03T16:23:54.480Z,5.90
2023-07-03T16:26:22.707Z,4.60
2023-07-03T16:28:49.745Z,4.90
2023-07-03T16:31:21.765Z,5.03
2023-07-03T16:33:50.944Z,5.15
2023-07-03T16:36:22.799Z,4.80
2023-07-03T16:38:56.030Z,4.80
2023-07-03T16:41:24.321Z,4.53
2023-07-03T16:43:53.916Z,4.72
2023-07-03T16:46:23.062Z,4.93
2023-07-03T16:48:51.171Z,5.00
2023-07-03T16:51:18.749Z,4.60
2023-07-03T16:53:46.143Z,4.90
2023-07-03T16:56:15.830Z,4.70
2023-07-03T16:58:44.391Z,4.63
2023-07-03T17:01:20.220Z,5.10
2023-07-03T17:03:48.596Z,5.28
2023-07-03T17:06:26.170Z,4.65
2023-07-03T17:08:54.039Z,4.60
2023-07-03T17:11:20.905Z,4.55
2023-07-03T17:13:48.908Z,4.43
2023-07-03T17:16:16.577Z,4.60
2023-07-03T17:18:43.626Z,4.95
2023-07-03T17:21:10.621Z,5.15
2023-07-03T17:23:37.406Z,4.70
2023-07-03T17:26:04.604Z,4.40
2023-07-03T17:28:31.606Z,5.47
2023-07-03T17:30:58.337Z,4.43
2023-07-03T17:33:25.141Z,4.78
2023-07-03T17:35:52.338Z,4.90
2023-07-03T17:38:19.396Z,4.80
2023-07-03T17:40:48.206Z,4.78
2023-07-03T17:43:22.251Z,5.18
2023-07-03T17:45:50.039Z,4.63
2023-07-03T17:48:17.206Z,4.88
2023-07-03T17:50:46.888Z,5.10
2023-07-03T17:53:14.976Z,4.43
2023-07-03T17:55:42.118Z,4.85
2023-07-03T17:58:09.096Z,4.80
2023-07-03T18:00:36.212Z,4.63
2023-07-03T18:03:03.064Z,5.15
2023-07-03T18:05:33.452Z,4.82
2023-07-03T18:08:00.524Z,4.43
2023-07-03T18:10:34.794Z,5.05
2023-07-03T18:13:02.010Z,5.30
2023-07-03T18:15:43.443Z,4.57
2023-07-03T18:20:42.150Z,5.10
2023-07-03T18:23:09.220Z,4.78
2023-07-03T18:25:36.276Z,4.80
2023-07-03T18:28:04.554Z,4.43
2023-07-03T18:30:31.401Z,4.20
2023-07-03T18:32:58.242Z,4.45
2023-07-03T18:35:25.018Z,4.80
2023-07-03T18:37:51.786Z,4.88
2023-07-03T18:40:18.827Z,4.30
2023-07-03T18:42:45.638Z,4.80
2023-07-03T18:45:12.445Z,4.70
2023-07-03T18:47:40.594Z,4.40
2023-07-03T18:50:08.259Z,4.40
2023-07-03T18:52:35.005Z,4.35
2023-07-03T18:55:01.874Z,4.50
2023-07-03T18:57:28.653Z,4.50
2023-07-03T18:59:55.391Z,4.85
2023-07-03T19:02:22.238Z,4.63
2023-07-03T19:04:49.132Z,4.05
2023-07-03T19:07:15.887Z,4.50
2023-07-03T19:09:42.704Z,4.70
2023-07-03T19:12:09.661Z,4.50
2023-07-03T19:14:36.764Z,4.38
2023-07-03T19:17:04.070Z,4.70
2023-07-03T19:19:30.969Z,4.47
2023-07-03T19:21:57.824Z,4.82
2023-07-03T19:24:24.831Z,4.80
2023-07-03T19:26:51.624Z,4.70
2023-07-03T19:29:18.372Z,4.68
2023-07-03T19:31:45.124Z,4.35
2023-07-03T19:34:12.195Z,4.18
2023-07-03T19:36:39.089Z,4.65
2023-07-03T19:39:06.031Z,4.68
2023-07-03T19:41:32.996Z,4.43
2023-07-03T19:43:59.925Z,4.65
2023-07-03T19:46:26.787Z,4.95
2023-07-03T19:48:53.702Z,5.43
2023-07-03T19:51:20.410Z,5.45
2023-07-03T19:53:48.517Z,5.70
2023-07-03T19:56:16.531Z,5.60
2023-07-03T19:58:44.151Z,4.75
2023-07-03T20:01:12.848Z,5.15
2023-07-03T20:03:40.864Z,5.28
2023-07-03T20:06:19.964Z,5.80
2023-07-03T20:08:48.216Z,5.35
2023-07-03T20:11:15.518Z,4.75
2023-07-03T20:13:42.727Z,5.43
2023-07-03T20:16:10.154Z,5.25
2023-07-03T20:18:37.079Z,5.35
2023-07-03T20:21:05.932Z,5.03
2023-07-03T20:23:34.263Z,5.28
2023-07-03T20:26:02.395Z,4.97
2023-07-03T20:28:29.304Z,5.05
2023-07-03T20:30:56.200Z,5.18
2023-07-03T20:33:23.140Z,5.55
2023-07-03T20:36:07.095Z,4.68
2023-07-03T20:38:33.982Z,5.03
2023-07-03T20:41:04.969Z,4.55
2023-07-03T20:43:31.987Z,5.20
2023-07-03T20:46:01.955Z,4.82
2023-07-03T20:48:29.579Z,4.80
2023-07-03T20:51:05.387Z,5.32
2023-07-03T20:53:48.450Z,5.15
2023-07-03T20:56:20.611Z,4.93
2023-07-03T20:58:51.151Z,5.35
2023-07-03T21:01:30.360Z,5.18
2023-07-03T21:04:02.165Z,4.75
2023-07-03T21:06:31.205Z,4.35
2023-07-03T21:08:59.685Z,4.70
2023-07-03T21:11:31.974Z,5.00
2023-07-03T21:14:05.821Z,4.95
2023-07-03T21:16:34.399Z,4.57
2023-07-03T21:19:01.786Z,4.93
2023-07-03T21:21:33.868Z,4.60
2023-07-03T21:24:03.021Z,4.55
2023-07-03T21:26:30.731Z,5.22
2023-07-03T21:28:57.592Z,4.93
2023-07-03T21:31:27.830Z,5.10
2023-07-03T21:33:54.635Z,4.78
2023-07-03T21:36:24.042Z,5.20
2023-07-03T21:38:52.843Z,5.20
2023-07-03T21:41:20.757Z,4.97
2023-07-03T21:43:55.239Z,5.05
2023-07-03T21:46:23.665Z,4.47
2023-07-03T21:48:53.556Z,4.90
2023-07-03T21:51:20.900Z,4.97
2023-07-03T21:53:47.810Z,5.18
2023-07-03T21:56:19.180Z,5.03
2023-07-03T21:58:47.753Z,4.57
2023-07-03T22:01:19.686Z,4.72
2023-07-03T22:03:46.731Z,4.80
2023-07-03T22:06:13.528Z,4.63
2023-07-03T22:08:40.410Z,4.72
2023-07-03T22:11:07.964Z,4.68
2023-07-03T22:13:35.251Z,4.25
2023-07-03T22:16:02.289Z,4.50
2023-07-03T22:18:30.279Z,4.57
2023-07-03T22:20:57.159Z,4.38
2023-07-03T22:23:31.607Z,4.63
2023-07-03T22:26:00.618Z,4.70
2023-07-03T22:28:28.687Z,4.47
2023-07-03T22:30:55.534Z,4.15
2023-07-03T22:33:22.772Z,4.80
2023-07-03T22:35:50.271Z,4.68
2023-07-03T22:38:17.416Z,4.30
2023-07-03T22:40:44.282Z,4.40
2023-07-03T22:43:11.041Z,4.75
2023-07-03T22:45:37.797Z,4.60
2023-07-03T22:48:04.932Z,4.40
2023-07-03T22:50:31.853Z,4.30
2023-07-03T22:52:58.676Z,4.43
2023-07-03T22:55:25.656Z,4.50
2023-07-03T22:57:52.458Z,4.50
2023-07-03T23:00:19.587Z,4.78
2023-07-03T23:02:46.326Z,4.45
2023-07-03T23:05:13.208Z,4.70
2023-07-03T23:07:40.370Z,4.30
2023-07-03T23:10:07.880Z,4.45
2023-07-03T23:12:34.936Z,4.65
2023-07-03T23:15:01.736Z,4.45
2023-07-03T23:17:30.933Z,4.38
2023-07-03T23:19:58.083Z,4.82
2023-07-03T23:22:26.216Z,4.38
2023-07-03T23:24:54.645Z,4.65
2023-07-03T23:27:22.185Z,4.57
2023-07-03T23:29:49.273Z,5.30
2023-07-03T23:32:16.320Z,4.38
2023-07-03T23:34:43.196Z,4.55
2023-07-03T23:37:10.228Z,4.55
2023-07-03T23:39:40.685Z,5.40
2023-07-03T23:42:09.013Z,4.68
2023-07-03T23:44:37.368Z,4.05
2023-07-03T23:47:04.594Z,4.43
2023-07-03T23:49:31.527Z,4.40
2023-07-03T23:51:58.378Z,4.53
2023-07-03T23:54:25.163Z,4.30
2023-07-03T23:56:52.937Z,4.40
2023-07-03T23:59:20.537Z,4.75
